Time;durP1;ratioP1;P1;durP2;ratioP2;P2;SDS_P1;SDS_P2;PMS_P1;PMS_P2;Temp;Humidity;BMP_temperature;BMP_pressure;BME280_temperature;BME280_humidity;BME280_pressure;Samples;Min_cycle;Max_cycle;Signal;HPM_P1;HPM_P2
2021/03/30 00:00:27;;;;;;;16.77;7.30;;;;;;;11.06;64.41;101802.31;4992162;28;20499;-84
2021/03/30 00:02:53;;;;;;;11.98;7.65;;;;;;;10.83;64.76;101797.28;4992038;28;20035;-85
2021/03/30 00:05:19;;;;;;;11.25;6.60;;;;;;;10.69;65.79;101798.75;4992046;28;20061;-85
2021/03/30 00:07:44;;;;;;;9.27;5.57;;;;;;;10.89;64.91;101803.09;4991786;28;20377;-84
2021/03/30 00:10:15;;;;;;;12.23;6.72;;;;;;;10.96;64.59;101806.28;4992870;28;20026;-84
2021/03/30 00:12:41;;;;;;;13.35;6.93;;;;;;;10.82;64.11;101798.19;4995858;28;20105;-84
2021/03/30 00:15:10;;;;;;;17.77;7.47;;;;;;;10.68;65.01;101799.69;4996055;28;20101;-84
2021/03/30 00:17:35;;;;;;;12.75;6.70;;;;;;;10.39;65.53;101797.56;4995461;28;20038;-84
2021/03/30 00:20:06;;;;;;;21.08;8.20;;;;;;;9.81;68.57;101795.66;4995645;28;20485;-84
2021/03/30 00:22:31;;;;;;;13.70;7.65;;;;;;;10.03;68.81;101798.19;4995254;28;20035;-84
2021/03/30 00:24:57;;;;;;;18.80;7.45;;;;;;;10.17;68.92;101790.59;4995442;28;20030;-84
2021/03/30 00:27:22;;;;;;;16.02;7.00;;;;;;;10.39;67.15;101793.16;4995430;28;20022;-84
2021/03/30 00:29:50;;;;;;;9.63;5.60;;;;;;;10.43;67.24;101792.09;4995388;28;20022;-84
2021/03/30 00:32:15;;;;;;;11.93;6.00;;;;;;;10.49;66.91;101791.81;4995075;28;20432;-84
2021/03/30 00:34:40;;;;;;;11.80;6.13;;;;;;;10.52;66.60;101790.81;4995855;28;20072;-84
2021/03/30 00:37:06;;;;;;;9.57;5.00;;;;;;;10.52;66.29;101793.44;4993625;28;20436;-84
2021/03/30 00:39:32;;;;;;;14.27;6.57;;;;;;;10.10;67.33;101783.91;4994879;28;20515;-84
2021/03/30 00:41:58;;;;;;;13.70;5.15;;;;;;;10.56;66.10;101786.25;4995151;28;20492;-84
2021/03/30 00:44:23;;;;;;;12.88;5.53;;;;;;;9.77;68.42;101789.69;4995066;28;20027;-84
2021/03/30 00:46:51;;;;;;;14.02;5.53;;;;;;;9.84;68.72;101799.00;4995562;28;20479;-84
2021/03/30 00:49:18;;;;;;;16.20;6.25;;;;;;;9.68;69.52;101776.97;4994969;28;20015;-84
2021/03/30 00:51:45;;;;;;;20.83;7.15;;;;;;;9.31;71.96;101788.97;4993496;28;20037;-84
2021/03/30 00:54:11;;;;;;;11.70;5.03;;;;;;;9.81;69.80;101787.78;4994683;28;20088;-83
2021/03/30 00:56:37;;;;;;;10.07;5.47;;;;;;;10.09;68.12;101776.94;4994888;28;20038;-83
2021/03/30 00:59:03;;;;;;;14.23;5.68;;;;;;;9.99;68.29;101786.13;4994937;28;20030;-83
2021/03/30 01:01:28;;;;;;;10.25;4.78;;;;;;;10.43;66.50;101786.00;4994817;28;20038;-84
2021/03/30 01:03:54;;;;;;;10.20;4.90;;;;;;;10.47;64.58;101774.41;4994758;28;20105;-84
2021/03/30 01:06:19;;;;;;;10.52;4.78;;;;;;;10.57;64.19;101778.31;4994837;28;20468;-84
2021/03/30 01:08:52;;;;;;;7.43;4.18;;;;;;;10.56;64.14;101787.09;4994036;28;20026;-84
2021/03/30 01:11:48;;;;;;;7.32;4.50;;;;;;;10.60;64.61;101777.31;4994376;28;20477;-84
2021/03/30 01:14:25;;;;;;;12.90;4.38;;;;;;;10.54;65.29;101775.81;4994524;28;20027;-84
2021/03/30 01:17:18;;;;;;;15.50;5.25;;;;;;;10.65;64.42;101773.56;4994314;28;20385;-84
2021/03/30 01:20:13;;;;;;;9.55;4.03;;;;;;;10.64;64.47;101768.38;4994431;28;20051;-84
2021/03/30 01:23:01;;;;;;;13.18;3.72;;;;;;;10.81;63.95;101764.97;4993265;28;20023;-84
2021/03/30 01:25:29;;;;;;;9.18;4.20;;;;;;;10.69;63.96;101764.63;5002300;28;20043;-84
2021/03/30 01:28:18;;;;;;;7.45;4.15;;;;;;;10.44;64.70;101758.78;4994334;28;20022;-84
2021/03/30 01:30:45;;;;;;;5.88;3.72;;;;;;;10.17;66.22;101761.72;4993925;28;20050;-84
2021/03/30 01:33:13;;;;;;;11.68;3.70;;;;;;;10.16;66.39;101762.63;4994001;28;20039;-84
2021/03/30 01:35:40;;;;;;;6.20;3.55;;;;;;;9.98;67.55;101768.69;4994528;28;20018;-84
2021/03/30 01:38:07;;;;;;;8.20;3.25;;;;;;;9.80;67.59;101763.31;4994130;28;20034;-84
2021/03/30 01:40:35;;;;;;;12.23;3.75;;;;;;;9.91;66.71;101763.72;4994301;28;20416;-84
2021/03/30 01:43:01;;;;;;;10.18;4.72;;;;;;;10.04;66.93;101773.69;4993976;28;20019;-84
2021/03/30 01:45:28;;;;;;;10.70;3.60;;;;;;;10.06;66.70;101769.22;4993619;28;20109;-84
2021/03/30 01:47:55;;;;;;;8.75;3.08;;;;;;;10.07;66.61;101768.28;4993540;28;20029;-84
2021/03/30 01:50:21;;;;;;;7.55;3.42;;;;;;;10.03;66.43;101757.09;4993634;28;20065;-84
2021/03/30 01:52:52;;;;;;;8.32;4.00;;;;;;;10.06;66.69;101766.59;4993861;28;20045;-84
2021/03/30 01:55:18;;;;;;;8.60;3.85;;;;;;;10.06;65.94;101761.34;4993526;28;20054;-83
2021/03/30 01:57:50;;;;;;;5.25;3.33;;;;;;;10.15;65.60;101760.94;4992213;28;20065;-84
2021/03/30 02:00:17;;;;;;;8.68;3.20;;;;;;;10.07;65.97;101763.91;4992434;28;20033;-84
2021/03/30 02:02:43;;;;;;;5.80;3.35;;;;;;;10.01;66.53;101769.44;4993660;28;20058;-84
2021/03/30 02:05:10;;;;;;;5.95;3.40;;;;;;;9.95;66.67;101760.94;4993239;28;20469;-84
2021/03/30 02:07:36;;;;;;;6.97;2.70;;;;;;;9.98;66.99;101759.06;4993298;28;20457;-84
2021/03/30 02:10:08;;;;;;;6.90;3.17;;;;;;;9.99;66.72;101758.16;4993336;28;20109;-84
2021/03/30 02:12:40;;;;;;;6.57;3.58;;;;;;;9.91;66.70;101758.47;4993491;28;20596;-84
2021/03/30 02:15:10;;;;;;;4.82;3.75;;;;;;;9.93;66.85;101771.50;4993450;28;20109;-84
2021/03/30 02:17:59;;;;;;;8.73;3.92;;;;;;;9.97;66.81;101761.72;4993477;28;20113;-84
2021/03/30 02:20:44;;;;;;;8.98;3.25;;;;;;;9.95;66.59;101760.94;4993143;28;20528;-84
2021/03/30 02:23:15;;;;;;;6.22;3.10;;;;;;;9.92;66.76;101764.56;4992392;28;20034;-84
2021/03/30 02:25:45;;;;;;;5.43;3.25;;;;;;;9.86;66.81;101759.59;4993150;28;20425;-84
2021/03/30 02:28:15;;;;;;;7.50;3.15;;;;;;;10.00;66.78;101766.84;4993144;28;20040;-84
2021/03/30 02:30:41;;;;;;;7.80;3.60;;;;;;;10.05;66.25;101764.88;4993188;28;20109;-84
2021/03/30 02:33:09;;;;;;;7.60;3.50;;;;;;;10.02;66.59;101760.63;4992946;28;20108;-84
2021/03/30 02:35:36;;;;;;;6.72;3.33;;;;;;;10.04;65.72;101758.78;4992864;28;20429;-84
2021/03/30 02:38:03;;;;;;;9.20;4.05;;;;;;;9.97;66.30;101757.31;4991703;28;20181;-84
2021/03/30 02:40:29;;;;;;;5.40;3.15;;;;;;;9.96;67.04;101752.16;4993077;28;20089;-84
2021/03/30 02:42:56;;;;;;;5.97;3.17;;;;;;;9.92;66.28;101756.69;4993006;28;20023;-84
2021/03/30 02:45:26;;;;;;;8.30;4.75;;;;;;;9.89;65.24;101741.94;4992876;28;20033;-84
2021/03/30 02:47:51;;;;;;;11.85;4.20;;;;;;;9.86;66.29;101744.69;4992779;28;20027;-84
2021/03/30 02:50:21;;;;;;;7.32;4.07;;;;;;;9.71;66.69;101734.84;4994316;28;20401;-82
2021/03/30 02:52:47;;;;;;;6.18;3.90;;;;;;;9.70;66.08;101733.16;4994902;28;20034;-83
2021/03/30 02:55:13;;;;;;;8.13;3.88;;;;;;;9.88;65.94;101742.00;4992136;28;20484;-83
2021/03/30 02:57:40;;;;;;;5.28;3.70;;;;;;;9.83;65.71;101744.81;4992833;28;20030;-84
2021/03/30 03:00:10;;;;;;;7.32;3.42;;;;;;;9.92;65.55;101739.19;4992472;28;20365;-85
2021/03/30 03:02:37;;;;;;;6.25;3.42;;;;;;;9.91;65.22;101747.97;4992808;28;20018;-84
2021/03/30 03:05:03;;;;;;;8.82;3.90;;;;;;;9.98;65.40;101739.84;4991325;28;20034;-84
2021/03/30 03:07:28;;;;;;;7.97;3.47;;;;;;;9.88;65.56;101742.00;4992443;28;20030;-84
2021/03/30 03:09:56;;;;;;;10.70;3.58;;;;;;;9.89;65.27;101735.81;4992762;28;20030;-84
2021/03/30 03:12:21;;;;;;;8.32;3.65;;;;;;;9.91;65.53;101737.50;4992552;28;20037;-83
2021/03/30 03:14:49;;;;;;;5.97;3.50;;;;;;;9.93;65.10;101746.13;4992470;28;20038;-84
2021/03/30 03:17:15;;;;;;;7.15;3.50;;;;;;;9.85;66.07;101748.25;4992581;28;20034;-84
2021/03/30 03:19:41;;;;;;;7.63;4.15;;;;;;;9.97;65.79;101741.59;4992593;28;20109;-84
2021/03/30 03:22:08;;;;;;;7.60;3.45;;;;;;;9.79;66.28;101745.03;4992158;28;20030;-84
2021/03/30 03:24:33;;;;;;;12.52;4.78;;;;;;;9.88;65.98;101736.75;4992481;28;20026;-84
2021/03/30 03:26:59;;;;;;;14.70;4.93;;;;;;;9.81;66.66;101730.91;4992540;28;20381;-84
2021/03/30 03:29:24;;;;;;;8.05;3.78;;;;;;;9.80;66.25;101728.38;4992495;28;20076;-84
2021/03/30 03:31:50;;;;;;;7.90;3.75;;;;;;;9.83;66.31;101731.69;4992381;28;20033;-84
2021/03/30 03:34:19;;;;;;;7.68;3.72;;;;;;;9.77;65.88;101729.34;4992762;28;20118;-84
2021/03/30 03:36:50;;;;;;;7.85;3.08;;;;;;;9.53;67.18;101726.84;4991746;28;20027;-84
2021/03/30 03:39:19;;;;;;;10.30;3.80;;;;;;;9.44;67.14;101727.25;4991809;28;20571;-84
2021/03/30 03:41:46;;;;;;;7.05;3.53;;;;;;;9.39;67.67;101731.00;4991988;28;20045;-83
2021/03/30 03:44:12;;;;;;;10.82;3.97;;;;;;;9.23;67.90;101723.75;4991824;28;20034;-84
2021/03/30 03:46:38;;;;;;;8.88;4.40;;;;;;;9.34;67.94;101725.94;4995384;28;20105;-84
2021/03/30 03:49:05;;;;;;;12.90;4.28;;;;;;;9.34;67.76;101725.94;4996079;28;20122;-84
2021/03/30 03:51:42;;;;;;;7.68;3.97;;;;;;;9.33;67.86;101724.22;4996160;28;20030;-84
2021/03/30 03:54:11;;;;;;;7.60;3.45;;;;;;;9.31;66.84;101720.81;4995866;28;20391;-84
2021/03/30 03:56:52;;;;;;;8.45;4.45;;;;;;;9.31;67.83;101715.59;4995799;28;20038;-84
2021/03/30 03:59:26;;;;;;;7.65;3.78;;;;;;;9.43;67.62;101719.47;4986678;28;20511;-84
2021/03/30 04:02:13;;;;;;;7.68;4.10;;;;;;;9.45;67.48;101718.47;4995397;28;20030;-84
2021/03/30 04:04:51;;;;;;;9.50;3.17;;;;;;;9.40;67.76;101716.94;4996289;28;20033;-84
2021/03/30 04:07:22;;;;;;;6.95;3.63;;;;;;;9.60;66.98;101710.88;4996039;28;20113;-84
2021/03/30 04:09:52;;;;;;;6.20;3.88;;;;;;;9.50;67.78;101705.19;4995464;28;20034;-83
2021/03/30 04:12:20;;;;;;;6.85;3.65;;;;;;;9.57;67.16;101705.75;4995793;28;20117;-84
2021/03/30 04:14:46;;;;;;;9.02;4.00;;;;;;;9.51;67.25;101705.09;4995757;28;20061;-84
2021/03/30 04:17:16;;;;;;;12.25;4.20;;;;;;;9.60;66.97;101697.78;4995680;28;20060;-84
2021/03/30 04:19:42;;;;;;;11.45;4.95;;;;;;;9.58;67.31;101699.59;4995678;28;20027;-84
2021/03/30 04:22:09;;;;;;;9.63;3.72;;;;;;;9.61;67.21;101692.44;4994323;28;20101;-84
2021/03/30 04:24:34;;;;;;;5.43;3.95;;;;;;;9.55;67.25;101699.72;4995044;28;20113;-84
2021/03/30 04:26:59;;;;;;;10.02;3.78;;;;;;;9.45;67.05;101700.13;4995405;28;20101;-84
2021/03/30 04:29:25;;;;;;;9.35;3.78;;;;;;;9.44;66.98;101698.44;4995390;28;20102;-84
2021/03/30 04:31:50;;;;;;;6.95;3.35;;;;;;;9.40;67.79;101691.63;4995512;28;20046;-84
2021/03/30 04:34:16;;;;;;;11.88;3.97;;;;;;;9.55;66.84;101697.09;4994663;28;20029;-84
2021/03/30 04:36:41;;;;;;;10.25;3.40;;;;;;;9.60;66.73;101682.88;4993777;28;20469;-84
2021/03/30 04:39:06;;;;;;;10.50;3.58;;;;;;;9.44;67.67;101695.81;4993964;28;20049;-84
2021/03/30 04:41:32;;;;;;;10.23;4.40;;;;;;;9.42;68.26;101696.78;4994758;28;20042;-84
2021/03/30 04:43:57;;;;;;;7.35;3.85;;;;;;;9.42;67.61;101695.03;4994992;28;20029;-84
2021/03/30 04:46:22;;;;;;;9.43;3.70;;;;;;;9.48;67.17;101692.13;4994898;28;20025;-84
2021/03/30 04:48:48;;;;;;;6.53;3.80;;;;;;;9.42;67.44;101681.91;4995132;28;20034;-84
2021/03/30 04:51:13;;;;;;;7.82;3.67;;;;;;;9.53;67.18;101689.31;4995215;28;20105;-84
2021/03/30 04:53:39;;;;;;;8.93;3.75;;;;;;;9.67;67.04;101688.69;4994837;28;20427;-84
2021/03/30 04:56:04;;;;;;;12.48;3.78;;;;;;;9.65;66.80;101690.53;4994674;28;20454;-84
2021/03/30 04:58:30;;;;;;;5.43;3.08;;;;;;;9.68;66.28;101688.66;4993960;28;20034;-84
2021/03/30 05:00:55;;;;;;;12.02;3.72;;;;;;;9.64;66.62;101696.72;4993425;28;20026;-84
2021/03/30 05:03:21;;;;;;;4.85;2.97;;;;;;;9.66;65.81;101694.88;4995102;28;20385;-84
2021/03/30 05:05:46;;;;;;;7.63;3.40;;;;;;;9.68;66.60;101688.66;4994534;28;20370;-84
2021/03/30 05:08:12;;;;;;;6.15;3.65;;;;;;;9.68;66.41;101696.50;4994152;28;20042;-84
2021/03/30 05:10:37;;;;;;;7.20;3.90;;;;;;;9.60;65.60;101689.91;4993161;28;20507;-83
2021/03/30 05:13:03;;;;;;;8.07;3.80;;;;;;;9.60;66.00;101689.91;4994436;28;20026;-83
2021/03/30 05:15:28;;;;;;;8.35;3.63;;;;;;;9.58;66.71;101686.47;4994254;28;20045;-84
2021/03/30 05:17:54;;;;;;;10.55;3.63;;;;;;;9.56;66.57;101688.31;4994282;28;20076;-83
2021/03/30 05:20:19;;;;;;;7.32;3.72;;;;;;;9.55;66.78;101689.25;4994260;28;20026;-84
2021/03/30 05:22:44;;;;;;;7.20;3.38;;;;;;;9.57;66.13;101688.25;4992544;28;20473;-84
2021/03/30 05:25:11;;;;;;;8.48;3.38;;;;;;;9.56;65.95;101693.56;4994315;28;20038;-84
2021/03/30 05:27:36;;;;;;;9.00;3.85;;;;;;;9.52;66.25;101693.69;5009569;28;20393;-84
2021/03/30 05:30:04;;;;;;;7.85;3.28;;;;;;;9.51;66.63;101689.38;4994292;28;20026;-84
2021/03/30 05:32:29;;;;;;;12.38;4.10;;;;;;;9.56;66.14;101683.06;4994220;28;20455;-84
2021/03/30 05:34:54;;;;;;;9.95;3.63;;;;;;;9.58;65.87;101686.47;4994844;28;20026;-84
2021/03/30 05:37:20;;;;;;;7.95;3.85;;;;;;;9.59;66.18;101691.66;4994034;28;20022;-84
2021/03/30 05:39:45;;;;;;;8.23;3.20;;;;;;;9.56;65.83;101697.06;4994189;28;20508;-84
2021/03/30 05:42:15;;;;;;;9.35;3.67;;;;;;;9.61;65.60;101696.84;4994234;28;20394;-84
2021/03/30 05:44:42;;;;;;;10.52;3.70;;;;;;;9.62;65.83;101703.81;4994010;28;20026;-84
2021/03/30 05:47:18;;;;;;;11.25;4.28;;;;;;;9.64;65.96;101705.44;4994023;28;20317;-84
2021/03/30 05:49:45;;;;;;;8.27;3.58;;;;;;;9.66;65.85;101702.75;4994007;28;20054;-84
2021/03/30 05:52:18;;;;;;;7.97;4.00;;;;;;;9.64;65.99;101699.34;4992458;28;20054;-84
2021/03/30 05:54:47;;;;;;;11.10;4.35;;;;;;;9.68;65.64;101706.16;4993254;28;20056;-84
2021/03/30 05:57:14;;;;;;;14.02;4.95;;;;;;;9.67;65.67;101707.91;4993608;28;20041;-84
2021/03/30 05:59:42;;;;;;;7.53;4.28;;;;;;;9.64;66.01;101702.81;4993633;28;20026;-83
2021/03/30 06:02:19;;;;;;;6.72;3.88;;;;;;;9.72;66.06;101710.34;4996684;28;20405;-84
2021/03/30 06:04:45;;;;;;;10.23;4.68;;;;;;;9.78;66.35;101712.69;4993673;28;20030;-84
2021/03/30 06:07:11;;;;;;;9.25;4.18;;;;;;;9.86;66.05;101713.22;4993666;28;20026;-84
2021/03/30 06:09:36;;;;;;;14.30;4.78;;;;;;;9.96;66.16;101712.81;4992724;28;20092;-84
2021/03/30 06:12:02;;;;;;;12.27;5.55;;;;;;;9.79;66.93;101708.31;4992959;28;20022;-84
2021/03/30 06:14:41;;;;;;;9.88;5.03;;;;;;;9.97;66.27;101704.00;4993226;28;20026;-83
2021/03/30 06:17:08;;;;;;;11.70;5.05;;;;;;;10.05;66.65;101704.50;4993252;28;20396;-84
2021/03/30 06:19:50;;;;;;;11.25;5.03;;;;;;;10.21;65.91;101708.16;4993254;28;20427;-83
2021/03/30 06:22:16;;;;;;;6.75;4.07;;;;;;;10.31;65.87;101703.38;4993132;28;20018;-83
2021/03/30 06:24:42;;;;;;;12.40;4.93;;;;;;;10.49;65.18;101699.88;4993231;28;20428;-84
2021/03/30 06:27:08;;;;;;;9.52;4.75;;;;;;;10.58;65.30;101701.22;4992994;28;20496;-84
2021/03/30 06:29:36;;;;;;;8.55;4.53;;;;;;;10.63;65.17;101704.50;4993293;28;20034;-84
2021/03/30 06:32:10;;;;;;;7.70;4.40;;;;;;;10.65;65.50;101696.53;4993048;28;20473;-84
2021/03/30 06:34:37;;;;;;;8.02;4.15;;;;;;;10.73;65.31;101702.28;4993411;28;20034;-84
2021/03/30 06:37:28;;;;;;;6.85;3.95;;;;;;;10.85;65.44;101704.31;4993006;28;20030;-84
2021/03/30 06:40:10;;;;;;;18.50;4.97;;;;;;;10.93;65.44;101697.84;4992812;28;20033;-83
2021/03/30 06:45:14;;;;;;;7.85;4.43;;;;;;;11.09;65.13;101704.88;4993131;28;20118;-84
2021/03/30 06:47:40;;;;;;;6.05;4.20;;;;;;;11.31;64.93;101709.94;4991711;28;20084;-84
2021/03/30 06:50:16;;;;;;;6.93;4.28;;;;;;;11.45;65.17;101704.00;4992800;28;20433;-84
2021/03/30 06:52:41;;;;;;;8.38;4.30;;;;;;;11.71;63.93;101712.31;4991547;28;20049;-84
2021/03/30 06:55:12;;;;;;;7.07;3.80;;;;;;;11.95;63.39;101711.97;4992358;28;20135;-84
2021/03/30 06:57:46;;;;;;;8.15;4.38;;;;;;;12.16;63.25;101705.56;4992697;28;20440;-84
2021/03/30 07:00:12;;;;;;;5.25;3.60;;;;;;;12.44;62.88;101706.69;4992649;28;20292;-84
2021/03/30 07:02:45;;;;;;;10.95;4.57;;;;;;;12.76;62.51;101709.34;4992773;28;20280;-84
2021/03/30 07:05:21;;;;;;;5.97;3.80;;;;;;;13.10;61.88;101721.44;4988154;28;20041;-83
2021/03/30 07:07:52;;;;;;;9.20;3.78;;;;;;;13.35;60.94;101718.28;4992597;28;20069;-84
2021/03/30 07:10:18;;;;;;;10.90;4.38;;;;;;;13.23;60.95;101709.25;4988180;28;20038;-83
2021/03/30 07:12:45;;;;;;;6.68;3.22;;;;;;;13.36;61.02;101719.97;4997719;28;20033;-83
2021/03/30 07:15:11;;;;;;;8.23;3.90;;;;;;;13.56;60.91;101720.56;4986106;28;20031;-84
2021/03/30 07:17:40;;;;;;;9.57;4.07;;;;;;;13.82;59.95;101719.00;4987369;28;20045;-84
2021/03/30 07:20:07;;;;;;;8.48;4.28;;;;;;;13.83;59.61;101718.91;4981621;28;20041;-83
2021/03/30 07:22:37;;;;;;;6.82;3.78;;;;;;;14.42;57.93;101721.44;4987360;28;20033;-87
2021/03/30 07:25:05;;;;;;;11.70;4.95;;;;;;;14.71;57.80;101709.97;4989345;28;20053;-85
2021/03/30 07:27:37;;;;;;;9.85;4.40;;;;;;;15.23;55.76;101730.38;4991973;28;20018;-87
2021/03/30 07:30:04;;;;;;;8.43;3.90;;;;;;;15.46;54.65;101721.75;4992023;28;20028;-87
2021/03/30 07:32:55;;;;;;;11.13;4.57;;;;;;;15.67;55.43;101730.00;4979463;28;20049;-88
2021/03/30 07:35:22;;;;;;;36.30;5.40;;;;;;;15.77;53.10;101729.41;4994223;28;20033;-88
2021/03/30 07:38:02;;;;;;;22.35;5.45;;;;;;;16.08;53.27;101729.94;4972676;28;20154;-88
2021/03/30 07:40:27;;;;;;;11.93;4.97;;;;;;;16.03;53.07;101732.88;4982767;28;20038;-87
2021/03/30 07:42:54;;;;;;;12.38;5.00;;;;;;;16.03;51.82;101738.19;4989455;28;20022;-86
2021/03/30 07:45:40;;;;;;;11.27;5.00;;;;;;;15.57;54.14;101728.94;4977172;28;20045;-87
2021/03/30 07:48:10;;;;;;;8.88;4.50;;;;;;;15.72;50.95;101723.53;4988501;28;20030;-90
2021/03/30 07:51:07;;;;;;;12.55;5.15;;;;;;;15.90;52.28;101737.38;4979538;28;20469;-88
2021/03/30 07:53:52;;;;;;;9.68;5.22;;;;;;;16.58;50.54;101728.97;4992871;28;20723;-91
2021/03/30 07:56:24;;;;;;;11.15;4.90;;;;;;;17.07;48.56;101734.34;4978387;28;20030;-91
2021/03/30 07:58:50;;;;;;;14.40;5.80;;;;;;;17.65;46.30;101729.91;4982593;28;20065;-90
2021/03/30 08:01:19;;;;;;;14.57;4.82;;;;;;;18.27;45.65;101725.16;4990318;28;20026;-91
2021/03/30 08:03:45;;;;;;;9.65;4.43;;;;;;;19.02;44.58;101719.91;4991376;28;20022;-91
2021/03/30 08:06:27;;;;;;;15.93;5.82;;;;;;;19.93;42.85;101735.41;4992312;28;20019;-91
2021/03/30 08:08:58;;;;;;;17.33;5.22;;;;;;;20.76;39.24;101736.94;5002383;28;20129;-91
2021/03/30 08:11:45;;;;;;;14.38;5.25;;;;;;;20.65;40.41;101730.91;4976837;28;20033;-91
2021/03/30 08:14:21;;;;;;;18.67;6.63;;;;;;;21.02;40.03;101731.06;4992372;28;20027;-91
2021/03/30 08:16:52;;;;;;;21.98;7.20;;;;;;;21.34;39.10;101730.75;4990351;28;20023;-91
2021/03/30 08:19:18;;;;;;;18.48;4.95;;;;;;;22.61;35.66;101735.72;4983129;28;20429;-91
2021/03/30 08:21:59;;;;;;;15.85;5.32;;;;;;;23.70;34.82;101729.28;4980946;28;20086;-92
2021/03/30 08:24:47;;;;;;;13.77;5.75;;;;;;;24.44;32.28;101730.47;5006301;28;20058;-89
2021/03/30 08:27:31;;;;;;;13.98;7.00;;;;;;;24.43;31.56;101727.97;4999415;28;20038;-91
2021/03/30 08:30:03;;;;;;;14.77;5.82;;;;;;;24.64;31.32;101730.22;5011292;28;20050;-91
2021/03/30 08:32:31;;;;;;;14.50;5.80;;;;;;;25.62;30.09;101724.88;4990541;28;20055;-91
2021/03/30 08:34:56;;;;;;;14.40;5.40;;;;;;;26.06;28.76;101721.75;5008590;28;20097;-93
2021/03/30 08:37:22;;;;;;;12.85;6.05;;;;;;;25.68;29.36;101734.97;4999988;28;20062;-91
2021/03/30 08:39:48;;;;;;;10.75;5.18;;;;;;;26.75;29.11;101721.06;4994516;28;20531;-91
2021/03/30 08:42:19;;;;;;;13.50;5.55;;;;;;;26.93;27.90;101723.47;5003633;28;20062;-91
2021/03/30 08:44:59;;;;;;;12.53;5.93;;;;;;;27.46;26.86;101720.84;4996549;28;20031;-90
2021/03/30 08:47:27;;;;;;;9.02;4.88;;;;;;;27.79;27.13;101720.50;5013453;28;20018;-92
2021/03/30 08:50:22;;;;;;;12.85;4.65;;;;;;;28.52;24.95;101724.19;5016974;28;20014;-89
2021/03/30 08:52:47;;;;;;;17.48;5.50;;;;;;;28.66;24.36;101714.34;5007390;28;20034;-90
2021/03/30 08:55:13;;;;;;;37.72;7.90;;;;;;;27.99;25.28;101716.25;5015426;28;20055;-91
2021/03/30 08:57:47;;;;;;;37.60;7.88;;;;;;;27.73;25.76;101723.97;5016577;28;20085;-92
2021/03/30 09:00:14;;;;;;;18.67;5.43;;;;;;;28.70;24.53;101721.03;5013137;28;20043;-90
2021/03/30 09:02:40;;;;;;;9.57;5.05;;;;;;;28.94;24.02;101710.88;5007627;28;20083;-89
2021/03/30 09:05:39;;;;;;;13.55;5.28;;;;;;;29.06;24.44;101725.53;5010261;28;20026;-91
2021/03/30 09:08:05;;;;;;;10.35;5.18;;;;;;;28.65;23.98;101713.53;5035891;28;20053;-92
2021/03/30 09:10:30;;;;;;;13.20;6.05;;;;;;;29.34;23.25;101716.63;5004451;28;20015;-92
2021/03/30 09:13:16;;;;;;;11.35;4.53;;;;;;;29.46;23.04;101720.44;5010313;28;20027;-89
2021/03/30 09:15:46;;;;;;;19.85;5.65;;;;;;;29.94;23.38;101723.28;5007786;28;20094;-87
2021/03/30 09:18:24;;;;;;;34.70;5.93;;;;;;;30.18;22.34;101718.38;5014807;28;20030;-93
2021/03/30 09:21:06;;;;;;;12.32;5.25;;;;;;;30.71;22.25;101717.69;5009567;28;20014;-91
2021/03/30 09:23:32;;;;;;;8.18;4.22;;;;;;;30.26;22.19;101715.50;5013070;28;20049;-90
2021/03/30 09:25:59;;;;;;;10.55;4.80;;;;;;;29.41;22.82;101720.22;5009197;28;20015;-90
2021/03/30 09:28:25;;;;;;;10.05;4.80;;;;;;;29.87;22.60;101703.44;5020204;28;20014;-91
2021/03/30 09:30:51;;;;;;;12.88;5.00;;;;;;;29.42;23.26;101721.88;5019727;28;20045;-92
2021/03/30 09:33:16;;;;;;;12.05;5.70;;;;;;;29.96;22.61;101712.25;5002631;28;20027;-91
2021/03/30 09:35:42;;;;;;;12.32;5.40;;;;;;;29.89;23.50;101708.66;5019098;28;20022;-92
2021/03/30 09:38:08;;;;;;;11.43;5.00;;;;;;;30.39;22.37;101715.56;5018405;28;20037;-92
2021/03/30 09:40:41;;;;;;;11.52;4.38;;;;;;;30.64;22.43;101712.28;5018220;28;20022;-93
2021/03/30 09:43:13;;;;;;;14.50;5.95;;;;;;;29.94;22.62;101706.19;5013594;28;20034;-93
2021/03/30 09:45:40;;;;;;;16.42;5.32;;;;;;;30.27;22.75;101706.31;5011335;28;20030;-93
2021/03/30 09:48:10;;;;;;;12.45;4.90;;;;;;;30.75;22.93;101700.84;5018675;28;20070;-94
2021/03/30 09:50:44;;;;;;;12.40;5.53;;;;;;;31.14;21.91;101709.22;5017884;28;20054;-92
2021/03/30 09:53:09;;;;;;;11.23;4.88;;;;;;;31.27;22.08;101705.66;5016080;28;20046;-92
2021/03/30 09:55:40;;;;;;;11.68;4.80;;;;;;;31.04;22.07;101715.06;5016132;28;20014;-92
2021/03/30 09:58:08;;;;;;;14.27;5.63;;;;;;;31.24;21.63;101709.63;5017382;28;20058;-92
2021/03/30 10:00:36;;;;;;;13.25;4.35;;;;;;;31.26;22.39;101707.56;5019284;28;20022;-93
2021/03/30 10:03:03;;;;;;;9.63;4.03;;;;;;;31.43;21.70;101697.06;5018984;28;20014;-92
2021/03/30 10:05:38;;;;;;;12.13;5.10;;;;;;;31.57;21.54;101693.31;5019302;28;20057;-93
2021/03/30 10:08:04;;;;;;;12.23;4.20;;;;;;;31.91;21.03;101694.06;5019555;28;20292;-92
2021/03/30 10:10:44;;;;;;;10.32;4.88;;;;;;;31.54;20.99;101682.91;5018499;28;20026;-92
2021/03/30 10:13:26;;;;;;;21.88;5.82;;;;;;;32.00;21.47;101676.47;5019250;28;20041;-93
2021/03/30 10:15:53;;;;;;;8.15;4.43;;;;;;;31.96;21.63;101682.53;5018645;28;20034;-93
2021/03/30 10:18:22;;;;;;;10.38;4.53;;;;;;;31.91;21.37;101664.19;5018698;28;20042;-92
2021/03/30 10:20:50;;;;;;;11.23;4.60;;;;;;;31.33;22.06;101674.97;5019435;28;20017;-93
2021/03/30 10:23:18;;;;;;;11.52;4.78;;;;;;;32.23;20.96;101675.13;5014518;28;20030;-93
2021/03/30 10:25:44;;;;;;;10.88;4.78;;;;;;;32.22;21.24;101674.28;4994162;28;20086;-93
2021/03/30 10:28:10;;;;;;;17.98;5.30;;;;;;;32.66;21.14;101665.47;4993958;28;20568;-93
2021/03/30 10:30:46;;;;;;;8.95;4.50;;;;;;;31.86;20.93;101660.44;4994042;28;20034;-93
2021/03/30 10:33:15;;;;;;;9.65;3.72;;;;;;;31.60;21.37;101663.03;4994007;28;20029;-93
2021/03/30 10:35:41;;;;;;;9.25;3.33;;;;;;;32.29;21.00;101667.97;4994253;28;20023;-93
2021/03/30 10:38:07;;;;;;;6.90;3.15;;;;;;;32.38;21.28;101662.06;4993886;28;20023;-93
2021/03/30 10:40:35;;;;;;;10.20;4.47;;;;;;;31.81;21.43;101658.34;4993442;28;20034;-93
2021/03/30 10:43:24;;;;;;;9.02;3.67;;;;;;;31.96;20.25;101650.78;4993096;28;20049;-93
2021/03/30 10:45:51;;;;;;;9.52;3.33;;;;;;;32.92;20.95;101658.97;4993725;28;20026;-93
2021/03/30 10:48:17;;;;;;;13.43;3.22;;;;;;;33.59;20.00;101651.81;4993493;28;20030;-93
2021/03/30 10:50:43;;;;;;;13.27;3.90;;;;;;;33.49;19.05;101656.97;4994575;28;20031;-94
2021/03/30 10:53:09;;;;;;;7.18;3.38;;;;;;;33.26;19.44;101648.66;4993464;28;20023;-93
2021/03/30 10:55:35;;;;;;;10.05;3.67;;;;;;;33.41;20.07;101657.25;4992344;28;20041;-95
2021/03/30 10:58:06;;;;;;;6.50;3.10;;;;;;;33.16;19.95;101655.44;4993332;28;20073;-94
2021/03/30 11:00:31;;;;;;;8.70;4.30;;;;;;;32.65;19.85;101655.66;4993898;28;20511;-93
2021/03/30 11:02:58;;;;;;;7.72;3.17;;;;;;;33.01;19.92;101641.31;4994772;28;20030;-93
2021/03/30 11:05:24;;;;;;;8.30;2.95;;;;;;;33.71;19.44;101651.06;4993465;28;20045;-93
2021/03/30 11:07:49;;;;;;;7.43;3.88;;;;;;;32.40;19.86;101662.66;4993239;28;20049;-94
2021/03/30 11:10:15;;;;;;;8.63;2.92;;;;;;;32.58;20.24;101650.25;5002706;28;20045;-93
2021/03/30 11:12:40;;;;;;;10.57;3.20;;;;;;;32.28;19.86;101653.56;5034008;28;20010;-92
2021/03/30 11:15:07;;;;;;;7.93;3.85;;;;;;;30.63;22.83;101651.81;5017200;28;20026;-93
2021/03/30 11:17:33;;;;;;;8.20;3.50;;;;;;;31.06;21.49;101641.63;5031988;28;20084;-93
2021/03/30 11:19:58;;;;;;;12.25;4.30;;;;;;;31.20;21.95;101641.41;4995687;28;20374;-94
2021/03/30 11:22:24;;;;;;;9.95;3.05;;;;;;;31.77;21.71;101646.25;4996157;28;20033;-93
2021/03/30 11:24:54;;;;;;;10.90;3.35;;;;;;;32.04;21.23;101643.47;5025446;28;20021;-94
2021/03/30 11:27:19;;;;;;;5.43;3.22;;;;;;;30.97;22.24;101641.00;5002611;28;20570;-93
2021/03/30 11:30:35;;;;;;;10.20;3.50;;;;;;;30.65;21.56;101638.06;5002989;28;20026;-93
2021/03/30 11:35:15;;;;;;;9.93;3.83;;;;;;;31.89;21.32;101630.13;4998167;28;20422;-94
2021/03/30 11:40:25;;;;;;;8.50;3.33;;;;;;;32.31;20.13;101620.50;4979255;28;20133;-94
2021/03/30 11:42:50;;;;;;;6.47;2.97;;;;;;;31.19;21.00;101634.28;4992982;28;20046;-94